sensor_id;sensor_type;location;lat;lon;timestamp;pressure;altitude;pressure_sealevel;temperature;humidity
56789;BME280;42657;51.650;17.780;2022-12-01T00:02:28;101407.64;;;-0.15;76.24
56789;BME280;42657;51.650;17.780;2022-12-01T00:05:29;101406.00;;;-0.20;76.37
56789;BME280;42657;51.650;17.780;2022-12-01T00:08:32;101404.18;;;-0.23;76.49
56789;BME280;42657;51.650;17.780;2022-12-01T00:11:35;101402.52;;;-0.21;76.54
56789;BME280;42657;51.650;17.780;2022-12-01T00:14:37;101403.58;;;-0.17;76.57
56789;BME280;42657;51.650;17.780;2022-12-01T00:17:38;101400.41;;;-0.13;76.41
56789;BME280;42657;51.650;17.780;2022-12-01T00:20:41;101403.98;;;-0.09;76.42
56789;BME280;42657;51.650;17.780;2022-12-01T00:23:46;101404.46;;;-0.03;76.48
56789;BME280;42657;51.650;17.780;2022-12-01T00:26:48;101401.04;;;-0.00;76.45
56789;BME280;42657;51.650;17.780;2022-12-01T00:29:50;101406.55;;;-0.03;76.48
56789;BME280;42657;51.650;17.780;2022-12-01T00:32:51;101405.01;;;-0.05;76.46
56789;BME280;42657;51.650;17.780;2022-12-01T00:35:58;101411.33;;;-0.08;76.56
56789;BME280;42657;51.650;17.780;2022-12-01T00:39:00;101408.66;;;-0.09;76.71
56789;BME280;42657;51.650;17.780;2022-12-01T00:42:02;101408.66;;;-0.13;76.64
56789;BME280;42657;51.650;17.780;2022-12-01T00:45:05;101411.47;;;-0.14;76.61
56789;BME280;42657;51.650;17.780;2022-12-01T00:48:07;101409.30;;;-0.14;76.59
56789;BME280;42657;51.650;17.780;2022-12-01T00:51:09;101410.59;;;-0.09;76.56
56789;BME280;42657;51.650;17.780;2022-12-01T00:54:11;101404.18;;;-0.05;76.56
56789;BME280;42657;51.650;17.780;2022-12-01T00:57:12;101400.70;;;0.01;76.60
56789;BME280;42657;51.650;17.780;2022-12-01T01:00:14;101399.63;;;0.06;76.63
56789;BME280;42657;51.650;17.780;2022-12-01T01:03:16;101396.23;;;0.08;76.43
56789;BME280;42657;51.650;17.780;2022-12-01T01:06:18;101393.39;;;0.07;76.53
56789;BME280;42657;51.650;17.780;2022-12-01T01:09:19;101393.27;;;0.05;76.43
56789;BME280;42657;51.650;17.780;2022-12-01T01:12:21;101392.96;;;0.03;76.48
56789;BME280;42657;51.650;17.780;2022-12-01T01:15:22;101394.20;;;-0.01;76.58
56789;BME280;42657;51.650;17.780;2022-12-01T01:18:24;101390.90;;;-0.05;76.59
56789;BME280;42657;51.650;17.780;2022-12-01T01:21:26;101389.02;;;-0.07;76.63
56789;BME280;42657;51.650;17.780;2022-12-01T01:24:29;101390.27;;;-0.06;76.80
56789;BME280;42657;51.650;17.780;2022-12-01T01:27:33;101385.04;;;-0.01;76.70
56789;BME280;42657;51.650;17.780;2022-12-01T01:30:38;101383.48;;;0.04;76.70
56789;BME280;42657;51.650;17.780;2022-12-01T01:33:40;101382.17;;;0.09;76.75
56789;BME280;42657;51.650;17.780;2022-12-01T01:36:41;101383.45;;;0.12;76.65
56789;BME280;42657;51.650;17.780;2022-12-01T01:39:43;101381.16;;;0.14;76.68
56789;BME280;42657;51.650;17.780;2022-12-01T01:42:44;101375.46;;;0.14;76.66
56789;BME280;42657;51.650;17.780;2022-12-01T01:45:46;101377.41;;;0.12;76.55
56789;BME280;42657;51.650;17.780;2022-12-01T01:48:59;101374.89;;;0.11;76.78
56789;BME280;42657;51.650;17.780;2022-12-01T01:52:02;101374.90;;;0.11;76.94
56789;BME280;42657;51.650;17.780;2022-12-01T01:55:04;101373.54;;;0.09;76.92
56789;BME280;42657;51.650;17.780;2022-12-01T01:58:08;101368.41;;;0.07;76.84
56789;BME280;42657;51.650;17.780;2022-12-01T02:01:10;101368.95;;;0.07;76.88
56789;BME280;42657;51.650;17.780;2022-12-01T02:04:13;101364.79;;;0.10;76.79
56789;BME280;42657;51.650;17.780;2022-12-01T02:07:17;101364.27;;;0.13;76.80
56789;BME280;42657;51.650;17.780;2022-12-01T02:10:20;101360.42;;;0.16;76.70
56789;BME280;42657;51.650;17.780;2022-12-01T02:13:32;101362.58;;;0.20;76.81
56789;BME280;42657;51.650;17.780;2022-12-01T02:16:58;101363.12;;;0.21;76.72
56789;BME280;42657;51.650;17.780;2022-12-01T02:26:36;101365.95;;;0.23;76.85
56789;BME280;42657;51.650;17.780;2022-12-01T02:30:04;101365.55;;;0.20;76.70
56789;BME280;42657;51.650;17.780;2022-12-01T02:33:16;101364.40;;;0.15;76.86
56789;BME280;42657;51.650;17.780;2022-12-01T02:36:31;101364.38;;;0.16;76.98
56789;BME280;42657;51.650;17.780;2022-12-01T02:39:38;101364.02;;;0.19;76.94
56789;BME280;42657;51.650;17.780;2022-12-01T02:42:55;101361.21;;;0.22;76.89
56789;BME280;42657;51.650;17.780;2022-12-01T02:49:27;101358.22;;;0.36;76.90
56789;BME280;42657;51.650;17.780;2022-12-01T02:52:30;101355.02;;;0.41;76.94
56789;BME280;42657;51.650;17.780;2022-12-01T02:55:32;101352.11;;;0.42;76.96
56789;BME280;42657;51.650;17.780;2022-12-01T02:58:34;101348.91;;;0.40;76.74
56789;BME280;42657;51.650;17.780;2022-12-01T03:05:20;101344.20;;;0.31;76.86
56789;BME280;42657;51.650;17.780;2022-12-01T03:08:34;101343.89;;;0.27;76.97
56789;BME280;42657;51.650;17.780;2022-12-01T03:12:01;101342.46;;;0.26;76.98
56789;BME280;42657;51.650;17.780;2022-12-01T03:15:35;101340.71;;;0.29;77.02
56789;BME280;42657;51.650;17.780;2022-12-01T03:18:42;101340.64;;;0.31;76.83
56789;BME280;42657;51.650;17.780;2022-12-01T03:22:00;101340.13;;;0.35;76.98
56789;BME280;42657;51.650;17.780;2022-12-01T03:25:07;101328.16;;;0.38;76.91
56789;BME280;42657;51.650;17.780;2022-12-01T03:28:12;101330.85;;;0.39;76.89
56789;BME280;42657;51.650;17.780;2022-12-01T03:31:33;101329.03;;;0.39;76.87
56789;BME280;42657;51.650;17.780;2022-12-01T03:38:05;101329.48;;;0.34;76.82
56789;BME280;42657;51.650;17.780;2022-12-01T03:41:15;101330.44;;;0.29;76.73
56789;BME280;42657;51.650;17.780;2022-12-01T03:44:21;101336.05;;;0.28;76.79
56789;BME280;42657;51.650;17.780;2022-12-01T03:47:28;101333.92;;;0.31;76.97
56789;BME280;42657;51.650;17.780;2022-12-01T03:50:40;101335.25;;;0.36;76.74
56789;BME280;42657;51.650;17.780;2022-12-01T03:53:59;101334.63;;;0.41;76.79
56789;BME280;42657;51.650;17.780;2022-12-01T03:57:06;101339.38;;;0.45;76.55
56789;BME280;42657;51.650;17.780;2022-12-01T04:00:10;101339.67;;;0.45;76.78
56789;BME280;42657;51.650;17.780;2022-12-01T04:03:19;101343.16;;;0.48;76.63
56789;BME280;42657;51.650;17.780;2022-12-01T04:06:23;101342.66;;;0.48;76.62
56789;BME280;42657;51.650;17.780;2022-12-01T04:09:24;101341.07;;;0.48;76.67
56789;BME280;42657;51.650;17.780;2022-12-01T04:12:26;101341.70;;;0.46;76.67
56789;BME280;42657;51.650;17.780;2022-12-01T04:15:27;101343.83;;;0.49;76.70
56789;BME280;42657;51.650;17.780;2022-12-01T04:18:29;101339.98;;;0.51;76.47
56789;BME280;42657;51.650;17.780;2022-12-01T04:21:30;101344.91;;;0.56;76.53
56789;BME280;42657;51.650;17.780;2022-12-01T04:24:32;101350.44;;;0.61;76.37
56789;BME280;42657;51.650;17.780;2022-12-01T04:27:34;101346.64;;;0.63;76.22
56789;BME280;42657;51.650;17.780;2022-12-01T04:30:36;101347.35;;;0.63;76.30
56789;BME280;42657;51.650;17.780;2022-12-01T04:33:37;101347.41;;;0.66;76.46
56789;BME280;42657;51.650;17.780;2022-12-01T04:36:39;101340.35;;;0.66;76.50
56789;BME280;42657;51.650;17.780;2022-12-01T04:39:40;101340.91;;;0.67;76.52
56789;BME280;42657;51.650;17.780;2022-12-01T04:42:42;101336.81;;;0.65;76.50
56789;BME280;42657;51.650;17.780;2022-12-01T04:45:43;101339.23;;;0.61;76.33
56789;BME280;42657;51.650;17.780;2022-12-01T04:48:45;101337.50;;;0.61;76.54
56789;BME280;42657;51.650;17.780;2022-12-01T04:51:47;101331.80;;;0.63;76.53
56789;BME280;42657;51.650;17.780;2022-12-01T04:54:49;101333.13;;;0.66;76.36
56789;BME280;42657;51.650;17.780;2022-12-01T04:57:50;101335.61;;;0.70;76.23
56789;BME280;42657;51.650;17.780;2022-12-01T05:00:52;101339.42;;;0.76;76.15
56789;BME280;42657;51.650;17.780;2022-12-01T05:03:54;101341.68;;;0.78;76.06
56789;BME280;42657;51.650;17.780;2022-12-01T05:06:55;101338.55;;;0.79;76.08
56789;BME280;42657;51.650;17.780;2022-12-01T05:09:57;101335.37;;;0.76;76.08
56789;BME280;42657;51.650;17.780;2022-12-01T05:12:58;101339.16;;;0.72;76.07
56789;BME280;42657;51.650;17.780;2022-12-01T05:16:26;101340.58;;;0.70;76.30
56789;BME280;42657;51.650;17.780;2022-12-01T05:19:26;101343.64;;;0.68;76.24
56789;BME280;42657;51.650;17.780;2022-12-01T05:22:28;101339.65;;;0.64;76.31
56789;BME280;42657;51.650;17.780;2022-12-01T05:25:29;101336.90;;;0.65;76.28
56789;BME280;42657;51.650;17.780;2022-12-01T05:28:31;101342.48;;;0.68;76.08
56789;BME280;42657;51.650;17.780;2022-12-01T05:31:32;101341.84;;;0.71;76.16
56789;BME280;42657;51.650;17.780;2022-12-01T05:34:34;101340.75;;;0.77;76.17
56789;BME280;42657;51.650;17.780;2022-12-01T05:37:35;101336.98;;;0.83;75.99
56789;BME280;42657;51.650;17.780;2022-12-01T05:40:37;101338.50;;;0.86;76.15
56789;BME280;42657;51.650;17.780;2022-12-01T05:43:38;101339.90;;;0.87;75.92
56789;BME280;42657;51.650;17.780;2022-12-01T05:46:40;101336.10;;;0.86;76.12
56789;BME280;42657;51.650;17.780;2022-12-01T05:49:41;101344.40;;;0.84;75.94
56789;BME280;42657;51.650;17.780;2022-12-01T05:52:43;101344.08;;;0.81;75.99
56789;BME280;42657;51.650;17.780;2022-12-01T05:55:44;101344.00;;;0.76;76.04
56789;BME280;42657;51.650;17.780;2022-12-01T05:58:47;101341.55;;;0.76;76.09
56789;BME280;42657;51.650;17.780;2022-12-01T06:01:49;101343.30;;;0.80;76.07
56789;BME280;42657;51.650;17.780;2022-12-01T06:04:51;101344.77;;;0.83;75.98
56789;BME280;42657;51.650;17.780;2022-12-01T06:07:53;101344.44;;;0.86;75.81
56789;BME280;42657;51.650;17.780;2022-12-01T06:10:55;101346.55;;;0.89;75.77
56789;BME280;42657;51.650;17.780;2022-12-01T06:13:56;101346.98;;;0.91;75.89
56789;BME280;42657;51.650;17.780;2022-12-01T06:16:58;101348.44;;;0.91;75.81
56789;BME280;42657;51.650;17.780;2022-12-01T06:20:00;101349.77;;;0.88;75.73
56789;BME280;42657;51.650;17.780;2022-12-01T06:23:02;101355.21;;;0.89;75.88
56789;BME280;42657;51.650;17.780;2022-12-01T06:26:04;101362.50;;;0.87;75.71
56789;BME280;42657;51.650;17.780;2022-12-01T06:29:05;101361.60;;;0.84;75.74
56789;BME280;42657;51.650;17.780;2022-12-01T06:32:07;101363.16;;;0.84;75.80
56789;BME280;42657;51.650;17.780;2022-12-01T06:35:09;101357.40;;;0.87;75.71
56789;BME280;42657;51.650;17.780;2022-12-01T06:38:10;101364.40;;;0.92;75.71
56789;BME280;42657;51.650;17.780;2022-12-01T06:41:12;101364.65;;;0.98;75.63
56789;BME280;42657;51.650;17.780;2022-12-01T06:44:13;101366.31;;;0.99;75.60
56789;BME280;42657;51.650;17.780;2022-12-01T06:47:15;101369.24;;;1.02;75.69
56789;BME280;42657;51.650;17.780;2022-12-01T06:50:16;101374.09;;;1.03;75.62
56789;BME280;42657;51.650;17.780;2022-12-01T06:53:17;101374.51;;;1.02;75.57
56789;BME280;42657;51.650;17.780;2022-12-01T06:56:19;101375.96;;;1.02;75.75
56789;BME280;42657;51.650;17.780;2022-12-01T06:59:21;101373.09;;;0.99;75.75
56789;BME280;42657;51.650;17.780;2022-12-01T07:02:22;101372.63;;;0.97;75.64
56789;BME280;42657;51.650;17.780;2022-12-01T07:05:24;101372.41;;;1.00;75.63
56789;BME280;42657;51.650;17.780;2022-12-01T07:08:30;101370.09;;;1.03;75.60
56789;BME280;42657;51.650;17.780;2022-12-01T07:11:32;101370.02;;;1.07;75.50
56789;BME280;42657;51.650;17.780;2022-12-01T07:14:35;101375.83;;;1.13;75.68
56789;BME280;42657;51.650;17.780;2022-12-01T07:17:37;101377.21;;;1.18;75.75
56789;BME280;42657;51.650;17.780;2022-12-01T07:20:38;101380.91;;;1.20;75.73
56789;BME280;42657;51.650;17.780;2022-12-01T07:23:40;101377.32;;;1.17;75.65
56789;BME280;42657;51.650;17.780;2022-12-01T07:26:42;101379.94;;;1.14;75.58
56789;BME280;42657;51.650;17.780;2022-12-01T07:29:44;101379.65;;;1.14;75.62
56789;BME280;42657;51.650;17.780;2022-12-01T07:32:45;101379.86;;;1.13;75.61
56789;BME280;42657;51.650;17.780;2022-12-01T07:35:47;101381.73;;;1.15;75.74
56789;BME280;42657;51.650;17.780;2022-12-01T07:38:48;101384.67;;;1.18;75.58
56789;BME280;42657;51.650;17.780;2022-12-01T07:41:50;101385.84;;;1.25;75.57
56789;BME280;42657;51.650;17.780;2022-12-01T07:44:51;101385.42;;;1.30;75.54
56789;BME280;42657;51.650;17.780;2022-12-01T07:47:53;101382.04;;;1.34;75.60
56789;BME280;42657;51.650;17.780;2022-12-01T07:50:54;101391.48;;;1.36;75.62
56789;BME280;42657;51.650;17.780;2022-12-01T07:54:03;101390.06;;;1.40;75.49
56789;BME280;42657;51.650;17.780;2022-12-01T07:57:08;101391.70;;;1.46;75.40
56789;BME280;42657;51.650;17.780;2022-12-01T08:00:10;101391.53;;;1.51;75.32
56789;BME280;42657;51.650;17.780;2022-12-01T08:03:12;101389.65;;;1.58;75.40
56789;BME280;42657;51.650;17.780;2022-12-01T08:06:15;101390.21;;;1.64;75.18
56789;BME280;42657;51.650;17.780;2022-12-01T08:09:17;101388.83;;;1.67;75.21
56789;BME280;42657;51.650;17.780;2022-12-01T08:12:18;101387.36;;;1.71;75.14
56789;BME280;42657;51.650;17.780;2022-12-01T08:15:20;101388.55;;;1.75;75.26
56789;BME280;42657;51.650;17.780;2022-12-01T08:18:24;101385.93;;;1.79;75.15
56789;BME280;42657;51.650;17.780;2022-12-01T08:21:26;101383.77;;;1.78;75.03
56789;BME280;42657;51.650;17.780;2022-12-01T08:24:27;101383.94;;;1.79;74.92
56789;BME280;42657;51.650;17.780;2022-12-01T08:27:29;101383.43;;;1.84;75.04
56789;BME280;42657;51.650;17.780;2022-12-01T08:30:30;101388.45;;;1.93;74.94
56789;BME280;42657;51.650;17.780;2022-12-01T08:33:32;101388.64;;;1.99;74.85
56789;BME280;42657;51.650;17.780;2022-12-01T08:36:34;101388.93;;;2.05;74.63
56789;BME280;42657;51.650;17.780;2022-12-01T08:39:36;101390.61;;;2.07;74.52
56789;BME280;42657;51.650;17.780;2022-12-01T08:42:37;101387.16;;;2.13;74.68
56789;BME280;42657;51.650;17.780;2022-12-01T08:45:39;101388.33;;;2.18;74.68
56789;BME280;42657;51.650;17.780;2022-12-01T08:48:41;101383.25;;;2.22;74.75
56789;BME280;42657;51.650;17.780;2022-12-01T08:51:43;101390.41;;;2.22;74.50
56789;BME280;42657;51.650;17.780;2022-12-01T08:54:44;101395.69;;;2.22;74.49
56789;BME280;42657;51.650;17.780;2022-12-01T08:57:46;101396.46;;;2.26;74.59
56789;BME280;42657;51.650;17.780;2022-12-01T09:00:47;101399.81;;;2.29;74.39
56789;BME280;42657;51.650;17.780;2022-12-01T09:03:49;101398.89;;;2.35;74.36
56789;BME280;42657;51.650;17.780;2022-12-01T09:06:52;101392.83;;;2.41;74.39
56789;BME280;42657;51.650;17.780;2022-12-01T09:09:53;101395.76;;;2.51;74.34
56789;BME280;42657;51.650;17.780;2022-12-01T09:12:56;101395.15;;;2.56;74.26
56789;BME280;42657;51.650;17.780;2022-12-01T09:16:11;101394.34;;;2.59;74.23
56789;BME280;42657;51.650;17.780;2022-12-01T09:19:14;101392.59;;;2.61;74.17
56789;BME280;42657;51.650;17.780;2022-12-01T09:22:16;101389.95;;;2.68;74.06
56789;BME280;42657;51.650;17.780;2022-12-01T09:25:18;101389.54;;;2.76;73.95
56789;BME280;42657;51.650;17.780;2022-12-01T09:28:19;101384.45;;;2.80;73.83
56789;BME280;42657;51.650;17.780;2022-12-01T09:31:21;101379.86;;;2.83;73.89
56789;BME280;42657;51.650;17.780;2022-12-01T09:34:23;101378.17;;;2.90;73.83
56789;BME280;42657;51.650;17.780;2022-12-01T09:37:27;101381.11;;;2.89;73.66
56789;BME280;42657;51.650;17.780;2022-12-01T09:40:35;101379.83;;;2.91;73.80
56789;BME280;42657;51.650;17.780;2022-12-01T09:43:39;101374.04;;;3.03;73.81
56789;BME280;42657;51.650;17.780;2022-12-01T09:50:05;101364.44;;;3.26;73.29
56789;BME280;42657;51.650;17.780;2022-12-01T09:53:16;101357.69;;;3.38;73.18
56789;BME280;42657;51.650;17.780;2022-12-01T09:56:31;101355.69;;;3.41;72.95
56789;BME280;42657;51.650;17.780;2022-12-01T09:59:38;101357.96;;;3.41;72.87
56789;BME280;42657;51.650;17.780;2022-12-01T10:06:10;101352.61;;;3.52;72.44
56789;BME280;42657;51.650;17.780;2022-12-01T10:09:24;101351.44;;;3.54;72.17
56789;BME280;42657;51.650;17.780;2022-12-01T10:12:34;101351.27;;;3.62;72.24
56789;BME280;42657;51.650;17.780;2022-12-01T10:19:03;101349.58;;;3.83;72.18
56789;BME280;42657;51.650;17.780;2022-12-01T10:25:36;101348.69;;;3.96;71.85
56789;BME280;42657;51.650;17.780;2022-12-01T10:29:22;101345.85;;;4.06;71.92
56789;BME280;42657;51.650;17.780;2022-12-01T10:35:34;101339.41;;;4.01;71.51
56789;BME280;42657;51.650;17.780;2022-12-01T10:38:37;101339.38;;;3.99;71.55
56789;BME280;42657;51.650;17.780;2022-12-01T10:41:39;101335.76;;;3.94;71.56
56789;BME280;42657;51.650;17.780;2022-12-01T10:44:41;101332.10;;;3.94;71.57
56789;BME280;42657;51.650;17.780;2022-12-01T10:51:16;101326.79;;;4.03;71.22
56789;BME280;42657;51.650;17.780;2022-12-01T10:54:18;101323.98;;;4.09;71.23
56789;BME280;42657;51.650;17.780;2022-12-01T10:57:20;101323.66;;;4.10;70.94
56789;BME280;42657;51.650;17.780;2022-12-01T11:00:24;101320.86;;;4.12;70.96
56789;BME280;42657;51.650;17.780;2022-12-01T11:03:30;101320.69;;;4.15;70.96
56789;BME280;42657;51.650;17.780;2022-12-01T11:06:32;101320.07;;;4.16;70.69
56789;BME280;42657;51.650;17.780;2022-12-01T11:09:34;101318.11;;;4.09;70.60
56789;BME280;42657;51.650;17.780;2022-12-01T11:12:36;101322.29;;;4.08;70.60
56789;BME280;42657;51.650;17.780;2022-12-01T11:15:39;101317.59;;;4.10;70.79
56789;BME280;42657;51.650;17.780;2022-12-01T11:18:41;101314.96;;;4.10;70.75
56789;BME280;42657;51.650;17.780;2022-12-01T11:21:48;101311.34;;;4.10;70.56
56789;BME280;42657;51.650;17.780;2022-12-01T11:24:58;101318.48;;;4.05;70.31
56789;BME280;42657;51.650;17.780;2022-12-01T11:28:02;101316.41;;;3.90;69.93
56789;BME280;42657;51.650;17.780;2022-12-01T11:31:06;101318.69;;;3.80;70.26
56789;BME280;42657;51.650;17.780;2022-12-01T11:34:16;101316.06;;;3.68;70.29
56789;BME280;42657;51.650;17.780;2022-12-01T11:37:21;101315.59;;;3.55;70.39
56789;BME280;42657;51.650;17.780;2022-12-01T11:40:27;101312.16;;;3.44;70.33
56789;BME280;42657;51.650;17.780;2022-12-01T11:43:35;101311.31;;;3.33;70.62
56789;BME280;42657;51.650;17.780;2022-12-01T11:46:38;101307.82;;;3.24;70.70
56789;BME280;42657;51.650;17.780;2022-12-01T11:49:47;101308.13;;;3.17;70.57
56789;BME280;42657;51.650;17.780;2022-12-01T11:52:51;101309.73;;;3.12;70.47
56789;BME280;42657;51.650;17.780;2022-12-01T11:56:13;101306.89;;;3.08;70.61
56789;BME280;42657;51.650;17.780;2022-12-01T11:59:23;101310.23;;;3.06;70.70
56789;BME280;42657;51.650;17.780;2022-12-01T12:02:34;101310.62;;;3.02;70.73
56789;BME280;42657;51.650;17.780;2022-12-01T12:09:03;101308.73;;;2.87;70.79
56789;BME280;42657;51.650;17.780;2022-12-01T12:12:38;101309.52;;;2.87;70.95
56789;BME280;42657;51.650;17.780;2022-12-01T12:19:29;101319.08;;;2.93;70.94
56789;BME280;42657;51.650;17.780;2022-12-01T12:29:34;101312.88;;;2.94;71.15
56789;BME280;42657;51.650;17.780;2022-12-01T12:32:57;101312.16;;;2.91;71.36
56789;BME280;42657;51.650;17.780;2022-12-01T12:36:29;101307.79;;;2.83;71.01
56789;BME280;42657;51.650;17.780;2022-12-01T12:52:19;101308.34;;;2.77;70.77
56789;BME280;42657;51.650;17.780;2022-12-01T12:55:29;101310.93;;;2.77;71.06
56789;BME280;42657;51.650;17.780;2022-12-01T12:58:39;101308.89;;;2.78;71.01
56789;BME280;42657;51.650;17.780;2022-12-01T13:01:51;101312.20;;;2.77;70.99
56789;BME280;42657;51.650;17.780;2022-12-01T13:05:01;101308.96;;;2.75;70.93
56789;BME280;42657;51.650;17.780;2022-12-01T13:08:14;101313.00;;;2.69;70.97
56789;BME280;42657;51.650;17.780;2022-12-01T13:11:22;101315.33;;;2.64;71.12
56789;BME280;42657;51.650;17.780;2022-12-01T13:14:29;101306.52;;;2.60;71.02
56789;BME280;42657;51.650;17.780;2022-12-01T13:17:39;101307.52;;;2.61;71.05
56789;BME280;42657;51.650;17.780;2022-12-01T13:20:42;101301.53;;;2.59;70.95
56789;BME280;42657;51.650;17.780;2022-12-01T13:23:45;101306.16;;;2.62;71.13
56789;BME280;42657;51.650;17.780;2022-12-01T13:26:58;101306.95;;;2.64;71.10
56789;BME280;42657;51.650;17.780;2022-12-01T13:30:00;101307.51;;;2.61;71.11
56789;BME280;42657;51.650;17.780;2022-12-01T13:33:03;101306.30;;;2.59;71.09
56789;BME280;42657;51.650;17.780;2022-12-01T13:36:10;101306.90;;;2.59;71.18
56789;BME280;42657;51.650;17.780;2022-12-01T13:42:22;101313.77;;;2.47;71.09
56789;BME280;42657;51.650;17.780;2022-12-01T13:45:30;101307.44;;;2.40;71.20
56789;BME280;42657;51.650;17.780;2022-12-01T13:58:43;101316.08;;;2.47;71.29
56789;BME280;42657;51.650;17.780;2022-12-01T14:01:45;101317.87;;;2.46;71.31
56789;BME280;42657;51.650;17.780;2022-12-01T14:04:47;101317.09;;;2.44;71.14
56789;BME280;42657;51.650;17.780;2022-12-01T14:07:50;101315.97;;;2.43;71.27
56789;BME280;42657;51.650;17.780;2022-12-01T14:10:53;101313.70;;;2.40;71.35
56789;BME280;42657;51.650;17.780;2022-12-01T14:14:18;101316.48;;;2.36;71.43
56789;BME280;42657;51.650;17.780;2022-12-01T14:17:27;101315.31;;;2.27;71.47
56789;BME280;42657;51.650;17.780;2022-12-01T14:20:32;101312.35;;;2.19;71.53
56789;BME280;42657;51.650;17.780;2022-12-01T14:23:38;101315.83;;;2.13;71.56
56789;BME280;42657;51.650;17.780;2022-12-01T14:26:43;101315.25;;;2.09;71.59
56789;BME280;42657;51.650;17.780;2022-12-01T14:29:45;101318.08;;;2.09;71.52
56789;BME280;42657;51.650;17.780;2022-12-01T14:32:46;101316.81;;;2.09;71.55
56789;BME280;42657;51.650;17.780;2022-12-01T14:35:49;101318.14;;;2.10;71.43
56789;BME280;42657;51.650;17.780;2022-12-01T14:38:57;101319.54;;;2.10;71.56
56789;BME280;42657;51.650;17.780;2022-12-01T14:45:37;101317.52;;;2.01;71.44
56789;BME280;42657;51.650;17.780;2022-12-01T14:48:41;101316.95;;;1.95;71.33
56789;BME280;42657;51.650;17.780;2022-12-01T14:51:46;101313.51;;;1.90;71.28
56789;BME280;42657;51.650;17.780;2022-12-01T14:54:50;101316.91;;;1.85;71.23
56789;BME280;42657;51.650;17.780;2022-12-01T14:58:04;101314.67;;;1.81;71.25
56789;BME280;42657;51.650;17.780;2022-12-01T15:01:09;101313.02;;;1.82;71.24
56789;BME280;42657;51.650;17.780;2022-12-01T15:04:12;101317.02;;;1.85;71.36
56789;BME280;42657;51.650;17.780;2022-12-01T15:07:19;101316.70;;;1.88;71.32
56789;BME280;42657;51.650;17.780;2022-12-01T15:10:30;101315.70;;;1.87;71.22
56789;BME280;42657;51.650;17.780;2022-12-01T15:13:43;101313.38;;;1.85;71.30
56789;BME280;42657;51.650;17.780;2022-12-01T15:16:45;101317.13;;;1.83;71.31
56789;BME280;42657;51.650;17.780;2022-12-01T15:19:47;101313.59;;;1.78;71.26
56789;BME280;42657;51.650;17.780;2022-12-01T15:22:48;101309.02;;;1.73;71.27
56789;BME280;42657;51.650;17.780;2022-12-01T15:25:50;101309.45;;;1.69;71.15
56789;BME280;42657;51.650;17.780;2022-12-01T15:29:21;101306.20;;;1.66;70.99
56789;BME280;42657;51.650;17.780;2022-12-01T15:32:24;101306.30;;;1.67;70.95
56789;BME280;42657;51.650;17.780;2022-12-01T15:35:27;101302.98;;;1.70;70.79
56789;BME280;42657;51.650;17.780;2022-12-01T15:38:34;101302.10;;;1.72;70.74
56789;BME280;42657;51.650;17.780;2022-12-01T15:41:39;101299.19;;;1.70;70.72
56789;BME280;42657;51.650;17.780;2022-12-01T15:44:41;101304.16;;;1.70;70.85
56789;BME280;42657;51.650;17.780;2022-12-01T15:47:45;101303.10;;;1.68;70.78
56789;BME280;42657;51.650;17.780;2022-12-01T15:51:19;101302.73;;;1.66;70.78
56789;BME280;42657;51.650;17.780;2022-12-01T15:54:25;101302.64;;;1.62;70.89
56789;BME280;42657;51.650;17.780;2022-12-01T15:57:26;101306.30;;;1.57;70.85
56789;BME280;42657;51.650;17.780;2022-12-01T16:00:28;101306.84;;;1.56;70.72
56789;BME280;42657;51.650;17.780;2022-12-01T16:03:29;101307.77;;;1.57;70.83
56789;BME280;42657;51.650;17.780;2022-12-01T16:06:34;101303.70;;;1.62;71.08
56789;BME280;42657;51.650;17.780;2022-12-01T16:09:38;101302.77;;;1.67;70.88
56789;BME280;42657;51.650;17.780;2022-12-01T16:12:40;101306.46;;;1.69;70.98
56789;BME280;42657;51.650;17.780;2022-12-01T16:15:42;101305.36;;;1.67;70.81
56789;BME280;42657;51.650;17.780;2022-12-01T16:18:52;101312.19;;;1.65;70.85
56789;BME280;42657;51.650;17.780;2022-12-01T16:22:13;101309.34;;;1.64;71.08
56789;BME280;42657;51.650;17.780;2022-12-01T16:25:27;101308.67;;;1.62;70.94
56789;BME280;42657;51.650;17.780;2022-12-01T16:28:31;101310.85;;;1.58;70.85
56789;BME280;42657;51.650;17.780;2022-12-01T16:31:34;101310.61;;;1.54;71.01
56789;BME280;42657;51.650;17.780;2022-12-01T16:34:35;101309.09;;;1.53;70.89
56789;BME280;42657;51.650;17.780;2022-12-01T16:37:37;101305.24;;;1.56;71.04
56789;BME280;42657;51.650;17.780;2022-12-01T16:40:40;101304.40;;;1.60;70.93
56789;BME280;42657;51.650;17.780;2022-12-01T16:43:45;101305.52;;;1.65;70.74
56789;BME280;42657;51.650;17.780;2022-12-01T16:46:47;101302.80;;;1.66;70.68
56789;BME280;42657;51.650;17.780;2022-12-01T16:49:49;101302.44;;;1.66;70.65
56789;BME280;42657;51.650;17.780;2022-12-01T16:52:51;101302.41;;;1.67;71.00
56789;BME280;42657;51.650;17.780;2022-12-01T16:55:57;101304.53;;;1.64;70.81
56789;BME280;42657;51.650;17.780;2022-12-01T16:59:01;101303.45;;;1.62;70.96
56789;BME280;42657;51.650;17.780;2022-12-01T17:02:02;101301.48;;;1.61;70.69
56789;BME280;42657;51.650;17.780;2022-12-01T17:05:04;101303.61;;;1.58;70.76
56789;BME280;42657;51.650;17.780;2022-12-01T17:08:06;101311.13;;;1.54;70.75
56789;BME280;42657;51.650;17.780;2022-12-01T17:11:08;101313.95;;;1.51;70.73
56789;BME280;42657;51.650;17.780;2022-12-01T17:14:10;101312.17;;;1.53;70.93
56789;BME280;42657;51.650;17.780;2022-12-01T17:17:12;101312.05;;;1.57;70.68
56789;BME280;42657;51.650;17.780;2022-12-01T17:20:13;101315.26;;;1.63;70.78
56789;BME280;42657;51.650;17.780;2022-12-01T17:23:15;101312.48;;;1.66;70.71
56789;BME280;42657;51.650;17.780;2022-12-01T17:26:17;101309.05;;;1.66;70.60
56789;BME280;42657;51.650;17.780;2022-12-01T17:29:19;101303.52;;;1.65;70.73